createdAt,value
2023-02-06T00:01:30.533Z,103972.88
2023-02-06T00:03:58.749Z,103977.03
2023-02-06T00:06:26.728Z,103975.22
2023-02-06T00:08:56.550Z,103983.88
2023-02-06T00:11:24.726Z,103986.41
2023-02-06T00:13:53.183Z,103993.34
2023-02-06T00:16:22.986Z,103993.59
2023-02-06T00:18:51.758Z,103990.84
2023-02-06T00:21:22.088Z,103996.16
2023-02-06T00:23:50.720Z,103991.91
2023-02-06T00:26:20.196Z,103999.03
2023-02-06T00:28:48.709Z,103991.16
2023-02-06T00:31:17.162Z,103992.13
2023-02-06T00:33:45.124Z,103984.19
2023-02-06T00:36:13.350Z,103994.72
2023-02-06T00:38:41.385Z,103994.81
2023-02-06T00:41:09.583Z,103997.38
2023-02-06T00:43:38.978Z,103993.88
2023-02-06T00:46:07.068Z,103989.44
2023-02-06T00:48:34.932Z,103978.75
2023-02-06T00:51:02.886Z,103977.84
2023-02-06T00:53:30.762Z,103991.94
2023-02-06T00:55:58.841Z,103986.53
2023-02-06T00:58:26.905Z,103985.63
2023-02-06T01:00:58.234Z,103994.53
2023-02-06T01:03:27.052Z,103988.34
2023-02-06T01:05:54.979Z,103987.44
2023-02-06T01:08:23.026Z,103993.69
2023-02-06T01:10:50.910Z,103986.69
2023-02-06T01:13:18.884Z,103987.50
2023-02-06T01:15:46.950Z,103987.44
2023-02-06T01:18:17.564Z,103977.91
2023-02-06T01:20:45.705Z,103978.66
2023-02-06T01:23:13.857Z,103982.91
2023-02-06T01:25:41.819Z,103982.88
2023-02-06T01:28:09.752Z,103992.56
2023-02-06T01:30:37.723Z,103992.56
2023-02-06T01:33:05.752Z,103973.16
2023-02-06T01:35:35.449Z,103983.00
2023-02-06T01:38:03.510Z,103977.66
2023-02-06T01:40:31.483Z,103991.59
2023-02-06T01:42:59.589Z,104000.34
2023-02-06T01:45:46.294Z,103995.19
2023-02-06T01:48:22.150Z,103991.63
2023-02-06T01:50:54.980Z,103991.44
2023-02-06T01:53:24.519Z,103990.34
2023-02-06T01:55:55.805Z,104004.53
2023-02-06T01:58:29.223Z,104007.19
2023-02-06T02:00:58.781Z,104018.75
2023-02-06T02:03:28.060Z,104008.13
2023-02-06T02:06:02.386Z,104007.16
2023-02-06T02:08:35.227Z,104012.47
2023-02-06T02:11:05.484Z,104012.25
2023-02-06T02:13:36.571Z,104009.50
2023-02-06T02:16:13.988Z,104006.63
2023-02-06T02:19:03.813Z,104008.50
2023-02-06T02:22:04.737Z,104008.50
2023-02-06T02:24:52.286Z,104013.72
2023-02-06T02:28:06.794Z,104014.53
2023-02-06T02:30:52.578Z,104013.59
2023-02-06T02:33:50.705Z,104018.13
2023-02-06T02:36:27.326Z,104025.16
2023-02-06T02:39:04.467Z,104031.34
2023-02-06T02:41:39.242Z,104033.06
2023-02-06T02:44:11.532Z,104023.19
2023-02-06T02:46:42.473Z,104029.41
2023-02-06T02:49:14.457Z,104035.59
2023-02-06T02:51:44.904Z,104029.28
2023-02-06T02:54:12.813Z,104017.88
2023-02-06T02:56:40.931Z,104012.59
2023-02-06T02:59:14.447Z,104014.47
2023-02-06T03:01:49.852Z,104004.81
2023-02-06T03:04:24.083Z,103996.72
2023-02-06T03:07:10.659Z,103988.78
2023-02-06T03:09:52.357Z,103972.06
2023-02-06T03:12:27.019Z,103969.41
2023-02-06T03:14:59.298Z,103960.72
2023-02-06T03:17:34.562Z,103958.13
2023-02-06T03:20:05.412Z,103962.53
2023-02-06T03:22:37.136Z,103953.03
2023-02-06T03:25:08.606Z,103966.03
2023-02-06T03:27:40.246Z,103977.59
2023-02-06T03:30:10.751Z,103980.28
2023-02-06T03:32:43.455Z,103978.41
2023-02-06T03:35:16.928Z,103973.19
2023-02-06T03:37:47.946Z,103971.53
2023-02-06T03:40:16.636Z,103971.53
2023-02-06T03:42:49.631Z,103975.94
2023-02-06T03:45:24.250Z,103969.84
2023-02-06T03:47:54.466Z,103954.84
2023-02-06T03:50:24.715Z,103945.06
2023-02-06T03:52:57.394Z,103953.94
2023-02-06T03:55:26.251Z,103953.19
2023-02-06T03:57:56.881Z,103953.16
2023-02-06T04:00:25.466Z,103955.59
2023-02-06T04:02:56.203Z,103952.06
2023-02-06T04:05:24.208Z,103955.69
2023-02-06T04:07:54.013Z,103960.13
2023-02-06T04:10:21.965Z,103965.31
2023-02-06T04:12:50.015Z,103961.88
2023-02-06T04:15:18.056Z,103957.50
2023-02-06T04:17:58.846Z,103958.34
2023-02-06T04:20:27.949Z,103963.78
2023-02-06T04:22:57.514Z,103958.56
2023-02-06T04:25:25.928Z,103965.66
2023-02-06T04:27:53.935Z,103969.09
2023-02-06T04:30:22.305Z,103956.00
2023-02-06T04:32:50.259Z,103964.88
2023-02-06T04:35:18.097Z,103963.19
2023-02-06T04:37:46.050Z,103962.22
2023-02-06T04:40:15.418Z,103953.53
2023-02-06T04:42:43.422Z,103953.53
2023-02-06T04:45:11.643Z,103954.31
2023-02-06T04:47:39.776Z,103954.09
2023-02-06T04:50:08.601Z,103955.59
2023-02-06T04:52:36.662Z,103953.91
2023-02-06T04:55:04.858Z,103968.81
2023-02-06T04:57:34.198Z,103972.41
2023-02-06T05:00:02.133Z,103970.53
2023-02-06T05:02:30.056Z,103970.56
2023-02-06T05:04:58.225Z,103984.66
2023-02-06T05:07:26.393Z,103972.34
2023-02-06T05:09:54.316Z,103976.75
2023-02-06T05:12:24.611Z,103965.38
2023-02-06T05:14:53.959Z,103961.09
2023-02-06T05:17:23.690Z,103973.34
2023-02-06T05:19:51.702Z,103975.06
2023-02-06T05:22:19.899Z,103973.41
2023-02-06T05:24:51.798Z,103962.06
2023-02-06T05:27:20.493Z,103967.31
2023-02-06T05:29:49.450Z,103971.63
2023-02-06T05:32:20.109Z,103966.31
2023-02-06T05:34:48.035Z,103981.22
2023-02-06T05:37:15.903Z,103986.53
2023-02-06T05:39:43.938Z,103988.22
2023-02-06T05:42:11.848Z,103996.88
2023-02-06T05:44:39.696Z,104005.81
2023-02-06T05:47:07.651Z,104010.94
2023-02-06T05:49:36.967Z,104003.84
2023-02-06T05:52:04.969Z,104010.00
2023-02-06T05:54:33.232Z,104003.03
2023-02-06T05:57:01.610Z,103998.53
2023-02-06T05:59:30.362Z,104001.94
2023-02-06T06:01:58.789Z,104006.28
2023-02-06T06:04:27.274Z,104011.59
2023-02-06T06:06:56.896Z,104011.59
2023-02-06T06:09:25.238Z,104009.06
2023-02-06T06:11:53.393Z,104013.38
2023-02-06T06:14:21.647Z,104011.78
2023-02-06T06:16:49.572Z,103996.94
2023-02-06T06:19:17.936Z,104011.91
2023-02-06T06:21:45.823Z,104000.56
2023-02-06T06:24:15.201Z,104005.88
2023-02-06T06:26:43.079Z,104008.41
2023-02-06T06:29:10.965Z,104008.47
2023-02-06T06:31:39.038Z,103999.53
2023-02-06T06:34:06.919Z,104006.66
2023-02-06T06:36:34.848Z,104008.47
2023-02-06T06:39:03.259Z,104014.72
2023-02-06T06:41:32.513Z,104020.06
2023-02-06T06:44:00.392Z,104014.03
2023-02-06T06:46:28.284Z,104007.84
2023-02-06T06:48:56.268Z,103996.50
2023-02-06T06:51:24.090Z,104000.84
2023-02-06T06:53:51.904Z,104000.88
2023-02-06T06:56:19.723Z,104007.94
2023-02-06T06:58:49.088Z,104012.31
2023-02-06T07:01:17.637Z,104012.31
2023-02-06T07:03:48.180Z,104014.13
2023-02-06T07:06:16.659Z,104013.25
2023-02-06T07:08:44.592Z,104008.00
2023-02-06T07:11:14.581Z,104014.22
2023-02-06T07:13:43.018Z,104019.66
2023-02-06T07:16:12.974Z,104023.25
2023-02-06T07:18:41.977Z,104026.84
2023-02-06T07:21:10.338Z,104021.72
2023-02-06T07:23:38.715Z,104028.91
2023-02-06T07:26:06.853Z,104032.56
2023-02-06T07:28:35.111Z,104035.28
2023-02-06T07:31:04.106Z,104050.34
2023-02-06T07:33:33.405Z,104049.59
2023-02-06T07:36:03.882Z,104053.31
2023-02-06T07:38:32.570Z,104046.84
2023-02-06T07:41:02.596Z,104055.38
2023-02-06T07:43:30.642Z,104052.59
2023-02-06T07:46:00.925Z,104057.63
2023-02-06T07:48:29.128Z,104060.59
2023-02-06T07:50:58.611Z,104053.50
2023-02-06T07:53:26.495Z,104061.44
2023-02-06T07:55:54.305Z,104056.63
2023-02-06T07:58:22.089Z,104061.25
2023-02-06T08:00:50.122Z,104057.06
2023-02-06T08:03:18.070Z,104042.31
2023-02-06T08:05:45.960Z,104039.72
2023-02-06T08:08:15.363Z,104053.22
2023-02-06T08:10:43.191Z,104055.00
2023-02-06T08:13:11.091Z,104049.81
2023-02-06T08:15:38.934Z,104047.31
2023-02-06T08:18:06.779Z,104052.44
2023-02-06T08:20:34.606Z,104055.00
2023-02-06T08:23:02.588Z,104056.56
2023-02-06T08:25:31.854Z,104062.72
2023-02-06T08:27:59.728Z,104062.63
2023-02-06T08:30:27.722Z,104074.81
2023-02-06T08:32:55.575Z,104070.31
2023-02-06T08:35:23.479Z,104064.91
2023-02-06T08:37:51.344Z,104055.38
2023-02-06T08:40:21.218Z,104069.50
2023-02-06T08:42:52.530Z,104058.19
2023-02-06T08:45:20.682Z,104052.13
2023-02-06T08:47:48.525Z,104050.56
2023-02-06T08:50:17.065Z,104055.84
2023-02-06T08:52:44.921Z,104054.94
2023-02-06T08:55:12.735Z,104050.75
2023-02-06T08:57:40.603Z,104061.59
2023-02-06T09:00:11.407Z,104053.91
2023-02-06T09:02:39.283Z,104049.75
2023-02-06T09:05:07.447Z,104052.31
2023-02-06T09:07:35.868Z,104057.34
2023-02-06T09:10:05.332Z,104055.84
2023-02-06T09:12:33.158Z,104040.22
2023-02-06T09:15:01.667Z,104043.00
2023-02-06T09:17:31.787Z,104036.72
2023-02-06T09:19:59.624Z,104031.50
2023-02-06T09:22:28.038Z,104030.63
2023-02-06T09:24:56.142Z,104028.06
2023-02-06T09:27:23.962Z,104028.84
2023-02-06T09:29:51.729Z,104030.84
2023-02-06T09:32:19.665Z,104024.75
2023-02-06T09:34:49.447Z,104032.66
2023-02-06T09:37:17.820Z,104039.66
2023-02-06T09:39:45.747Z,104040.41
2023-02-06T09:42:20.409Z,104047.53
2023-02-06T09:44:53.596Z,104049.41
2023-02-06T09:47:25.865Z,104055.63
2023-02-06T09:49:59.059Z,104059.22
2023-02-06T09:52:56.879Z,104060.69
2023-02-06T09:55:31.316Z,104058.31
2023-02-06T09:58:08.631Z,104057.81
2023-02-06T10:00:45.642Z,104061.97
2023-02-06T10:03:36.679Z,104063.16
2023-02-06T10:06:15.828Z,104065.16
2023-02-06T10:08:50.415Z,104059.06
2023-02-06T10:11:26.631Z,104051.28
2023-02-06T10:13:58.785Z,104052.19
2023-02-06T10:16:37.768Z,104060.88
2023-02-06T10:19:10.668Z,104057.16
2023-02-06T10:21:42.915Z,104072.09
2023-02-06T10:24:19.995Z,104072.03
2023-02-06T10:26:49.073Z,104062.94
2023-02-06T10:29:22.554Z,104068.84
2023-02-06T10:32:07.419Z,104068.00
2023-02-06T10:35:06.936Z,104063.81
2023-02-06T10:38:02.683Z,104061.75
2023-02-06T10:40:40.336Z,104061.66
2023-02-06T10:43:18.327Z,104070.28
2023-02-06T10:45:53.005Z,104057.97
2023-02-06T10:48:29.657Z,104056.16
2023-02-06T10:51:01.773Z,104056.03
2023-02-06T10:53:35.801Z,104045.78
2023-02-06T10:56:07.868Z,104049.13
2023-02-06T10:58:41.761Z,104049.00
2023-02-06T11:01:25.631Z,104058.84
2023-02-06T11:04:00.119Z,104058.00
2023-02-06T11:06:31.164Z,104051.84
2023-02-06T11:09:00.691Z,104046.34
2023-02-06T11:11:30.837Z,104056.25
2023-02-06T11:14:09.092Z,104061.06
2023-02-06T11:16:37.606Z,104063.72
2023-02-06T11:19:18.919Z,104061.00
2023-02-06T11:21:51.770Z,104060.03
2023-02-06T11:24:25.568Z,104063.59
2023-02-06T11:26:58.506Z,104060.75
2023-02-06T11:29:28.925Z,104054.75
2023-02-06T11:31:59.706Z,104056.44
2023-02-06T11:34:32.751Z,104058.31
2023-02-06T11:37:02.977Z,104051.25
2023-02-06T11:39:33.674Z,104057.38
2023-02-06T11:42:04.623Z,104042.56
2023-02-06T11:44:38.110Z,104048.22
2023-02-06T11:47:29.441Z,104051.91
2023-02-06T11:49:57.783Z,104056.41
2023-02-06T11:52:31.685Z,104073.28
2023-02-06T11:55:03.131Z,104066.28
2023-02-06T11:57:36.100Z,104062.69
2023-02-06T12:00:21.267Z,104078.59
2023-02-06T12:02:53.884Z,104088.13
2023-02-06T12:05:26.122Z,104088.13
2023-02-06T12:08:00.702Z,104086.81
2023-02-06T12:10:32.569Z,104079.50
2023-02-06T12:13:06.830Z,104079.31
2023-02-06T12:15:47.896Z,104081.06
2023-02-06T12:18:20.004Z,104084.78
2023-02-06T12:20:56.472Z,104076.97
2023-02-06T12:23:29.187Z,104070.75
2023-02-06T12:26:01.517Z,104070.50
2023-02-06T12:28:39.764Z,104083.72
2023-02-06T12:31:14.169Z,104063.47
2023-02-06T12:33:45.784Z,104054.06
2023-02-06T12:36:18.102Z,104055.75
2023-02-06T12:38:50.146Z,104058.50
2023-02-06T12:41:40.767Z,104062.91
2023-02-06T12:44:22.966Z,104062.53
2023-02-06T12:46:56.287Z,104065.13
2023-02-06T12:49:29.505Z,104062.53
2023-02-06T12:52:04.891Z,104056.38
2023-02-06T12:54:38.771Z,104051.25
2023-02-06T12:57:15.670Z,104056.59
2023-02-06T13:00:12.861Z,104052.31
2023-02-06T13:03:22.261Z,104040.69
2023-02-06T13:05:53.652Z,104049.22
2023-02-06T13:08:27.732Z,104043.91
2023-02-06T13:11:05.106Z,104041.25
2023-02-06T13:13:38.066Z,104036.88
2023-02-06T13:16:07.911Z,104042.19
2023-02-06T13:19:01.557Z,104037.50
2023-02-06T13:21:32.374Z,104033.19
2023-02-06T13:24:18.854Z,104028.19
2023-02-06T13:27:04.284Z,104026.63
2023-02-06T13:29:34.782Z,104024.13
2023-02-06T13:32:30.875Z,104026.63
2023-02-06T13:35:07.919Z,104031.16
2023-02-06T13:37:38.296Z,104029.09
2023-02-06T13:40:20.989Z,104031.66
2023-02-06T13:42:52.809Z,104035.28
2023-02-06T13:45:25.999Z,104031.88
2023-02-06T13:48:24.452Z,104032.78
2023-02-06T13:51:08.956Z,104024.97
2023-02-06T13:54:12.745Z,104026.69
2023-02-06T13:56:59.651Z,104026.84
2023-02-06T13:59:31.227Z,104027.84
2023-02-06T14:02:12.189Z,104028.81
2023-02-06T14:04:41.182Z,104030.56
2023-02-06T14:07:31.486Z,104028.91
2023-02-06T14:10:38.632Z,104035.22
2023-02-06T14:13:20.032Z,104034.19
2023-02-06T14:15:55.852Z,104035.94
2023-02-06T14:18:38.284Z,104033.31
2023-02-06T14:21:17.001Z,104039.50
2023-02-06T14:24:16.455Z,104034.22
2023-02-06T14:26:53.836Z,104035.97
2023-02-06T14:29:31.674Z,104041.16
2023-02-06T14:32:12.868Z,104039.44
2023-02-06T14:34:56.264Z,104044.53
2023-02-06T14:37:47.828Z,104046.13
2023-02-06T14:40:22.209Z,104051.50
2023-02-06T14:42:51.594Z,104060.44
2023-02-06T14:45:33.821Z,104058.53
2023-02-06T14:48:14.443Z,104052.19
2023-02-06T14:50:49.513Z,104054.03
2023-02-06T14:53:23.162Z,104050.50
2023-02-06T14:55:51.191Z,104049.66
2023-02-06T14:58:22.014Z,104058.31
2023-02-06T15:00:49.876Z,104052.19
2023-02-06T15:03:19.246Z,104061.06
2023-02-06T15:05:58.735Z,104060.09
2023-02-06T15:08:26.587Z,104058.31
2023-02-06T15:10:59.226Z,104048.50
2023-02-06T15:13:34.837Z,104053.72
2023-02-06T15:16:04.852Z,104051.19
2023-02-06T15:18:33.818Z,104054.47
2023-02-06T15:21:08.141Z,104050.00
2023-02-06T15:23:50.023Z,104044.72
2023-02-06T15:26:32.167Z,104049.94
2023-02-06T15:29:02.866Z,104049.88
2023-02-06T15:31:32.065Z,104041.13
2023-02-06T15:34:07.437Z,104027.97
2023-02-06T15:36:41.520Z,104030.59
2023-02-06T15:39:12.009Z,104031.41
2023-02-06T15:41:41.372Z,104041.13
2023-02-06T15:44:13.527Z,104049.88
2023-02-06T15:46:44.465Z,104040.22
2023-02-06T15:49:20.101Z,104041.13
2023-02-06T15:51:58.431Z,104035.84
2023-02-06T15:54:30.537Z,104037.50
2023-02-06T15:57:09.820Z,104043.69
2023-02-06T15:59:41.922Z,104048.16
2023-02-06T16:02:26.216Z,104044.66
2023-02-06T16:04:55.747Z,104051.75
2023-02-06T16:07:27.598Z,104048.25
2023-02-06T16:09:57.962Z,104039.34
2023-02-06T16:12:26.474Z,104046.44
2023-02-06T16:15:04.633Z,104049.09
2023-02-06T16:17:35.556Z,104049.88
2023-02-06T16:20:05.409Z,104055.94
2023-02-06T16:22:37.819Z,104066.66
2023-02-06T16:25:22.012Z,104065.78
2023-02-06T16:27:51.261Z,104069.22
2023-02-06T16:30:30.041Z,104074.53
2023-02-06T16:33:00.259Z,104071.84
2023-02-06T16:35:28.210Z,104057.56
2023-02-06T16:37:57.676Z,104061.06
2023-02-06T16:40:26.231Z,104065.53
2023-02-06T16:42:54.242Z,104069.94
2023-02-06T16:45:23.965Z,104082.31
2023-02-06T16:47:52.134Z,104081.38
2023-02-06T16:50:21.627Z,104076.94
2023-02-06T16:52:51.806Z,104073.38
2023-02-06T16:55:25.290Z,104081.34
2023-02-06T16:57:55.457Z,104076.84
2023-02-06T17:00:25.881Z,104073.31
2023-02-06T17:02:54.627Z,104076.63
2023-02-06T17:05:24.601Z,104082.00
2023-02-06T17:07:53.131Z,104081.91
2023-02-06T17:10:24.635Z,104076.63
2023-02-06T17:12:53.010Z,104076.63
2023-02-06T17:15:21.196Z,104083.66
2023-02-06T17:17:53.755Z,104088.91
2023-02-06T17:20:36.064Z,104085.41
2023-02-06T17:23:04.875Z,104092.44
2023-02-06T17:25:34.737Z,104095.94
2023-02-06T17:28:03.216Z,104086.25
2023-02-06T17:30:31.175Z,104089.69
2023-02-06T17:33:01.914Z,104095.84
2023-02-06T17:35:31.781Z,104105.50
2023-02-06T17:38:00.289Z,104100.25
2023-02-06T17:40:33.977Z,104104.72
2023-02-06T17:43:04.708Z,104111.75
2023-02-06T17:45:33.195Z,104107.16
2023-02-06T17:48:01.568Z,104107.06
2023-02-06T17:50:30.675Z,104115.00
2023-02-06T17:53:00.296Z,104111.56
2023-02-06T17:55:29.211Z,104109.72
2023-02-06T17:58:10.905Z,104105.28
2023-02-06T18:00:39.347Z,104113.13
2023-02-06T18:03:07.457Z,104113.00
2023-02-06T18:05:35.675Z,104117.47
2023-02-06T18:08:03.860Z,104112.91
2023-02-06T18:10:31.946Z,104116.38
2023-02-06T18:12:59.836Z,104117.16
2023-02-06T18:15:31.583Z,104110.97
2023-02-06T18:18:01.195Z,104116.97
2023-02-06T18:20:30.534Z,104115.13
2023-02-06T18:22:58.749Z,104116.97
2023-02-06T18:25:26.673Z,104116.09
2023-02-06T18:27:54.698Z,104112.53
2023-02-06T18:30:22.813Z,104108.97
2023-02-06T18:32:52.094Z,104112.47
2023-02-06T18:35:20.708Z,104115.00
2023-02-06T18:37:50.068Z,104118.47
2023-02-06T18:40:18.476Z,104122.91
2023-02-06T18:42:54.206Z,104122.00
2023-02-06T18:45:23.297Z,104119.38
2023-02-06T18:47:53.267Z,104110.50
2023-02-06T18:50:22.539Z,104120.13
2023-02-06T18:52:50.930Z,104116.69
2023-02-06T18:55:18.986Z,104106.97
2023-02-06T18:57:47.406Z,104120.13
2023-02-06T19:00:17.226Z,104120.94
2023-02-06T19:02:45.239Z,104113.91
2023-02-06T19:05:14.959Z,104114.69
2023-02-06T19:07:43.184Z,104117.28
2023-02-06T19:10:13.261Z,104115.41
2023-02-06T19:12:41.102Z,104107.50
2023-02-06T19:15:10.389Z,104100.47
2023-02-06T19:17:42.577Z,104108.41
2023-02-06T19:20:23.304Z,104113.66
2023-02-06T19:22:52.794Z,104119.75
2023-02-06T19:25:20.830Z,104129.34
2023-02-06T19:27:48.905Z,104117.84
2023-02-06T19:30:17.007Z,104121.44
2023-02-06T19:32:45.024Z,104119.66
2023-02-06T19:35:15.542Z,104130.19
2023-02-06T19:37:47.113Z,104122.13
2023-02-06T19:40:27.236Z,104123.91
2023-02-06T19:42:55.502Z,104116.84
2023-02-06T19:45:23.881Z,104125.75
2023-02-06T19:47:51.909Z,104130.19
2023-02-06T19:50:20.070Z,104126.63
2023-02-06T19:52:50.315Z,104123.03
2023-02-06T19:55:19.687Z,104130.88
2023-02-06T19:57:47.755Z,104137.75
2023-02-06T20:00:16.309Z,104129.78
2023-02-06T20:02:44.435Z,104138.59
2023-02-06T20:05:12.639Z,104137.81
2023-02-06T20:07:43.463Z,104141.28
2023-02-06T20:10:13.193Z,104139.19
2023-02-06T20:12:41.344Z,104139.19
2023-02-06T20:15:10.190Z,104145.16
2023-02-06T20:17:38.167Z,104153.81
2023-02-06T20:20:07.925Z,104152.91
2023-02-06T20:23:24.592Z,104154.50
2023-02-06T20:25:54.853Z,104146.66
2023-02-06T20:28:25.052Z,104151.78
2023-02-06T20:33:46.124Z,104147.13
2023-02-06T20:39:16.874Z,104158.41
2023-02-06T20:42:05.908Z,104152.91
2023-02-06T20:44:59.878Z,104147.56
2023-02-06T20:47:30.870Z,104154.53
2023-02-06T20:50:17.660Z,104154.59
2023-02-06T20:53:09.704Z,104155.38
2023-02-06T20:56:15.108Z,104157.97
2023-02-06T20:58:45.381Z,104172.00
2023-02-06T21:01:16.628Z,104172.03
2023-02-06T21:03:49.195Z,104166.59
2023-02-06T21:06:19.079Z,104161.47
2023-02-06T21:08:56.552Z,104168.44
2023-02-06T21:11:30.363Z,104167.38
2023-02-06T21:14:05.137Z,104169.19
2023-02-06T21:16:34.553Z,104176.09
2023-02-06T21:19:03.486Z,104175.88
2023-02-06T21:21:32.071Z,104171.41
2023-02-06T21:24:00.568Z,104182.88
2023-02-06T21:26:29.562Z,104176.88
2023-02-06T21:28:59.765Z,104177.69
2023-02-06T21:31:36.879Z,104171.50
2023-02-06T21:34:09.096Z,104176.81
2023-02-06T21:36:41.837Z,104176.00
2023-02-06T21:39:10.664Z,104183.81
2023-02-06T21:41:38.767Z,104176.66
2023-02-06T21:44:08.192Z,104174.03
2023-02-06T21:46:36.331Z,104180.22
2023-02-06T21:49:06.338Z,104182.00
2023-02-06T21:51:34.455Z,104180.25
2023-02-06T21:54:02.945Z,104178.38
2023-02-06T21:56:32.110Z,104180.91
2023-02-06T21:59:00.184Z,104189.66
2023-02-06T22:01:33.121Z,104195.84
2023-02-06T22:04:02.392Z,104189.69
2023-02-06T22:06:30.765Z,104196.59
2023-02-06T22:09:05.159Z,104191.31
2023-02-06T22:11:33.657Z,104200.94
2023-02-06T22:14:03.836Z,104197.28
2023-02-06T22:16:33.927Z,104202.34
2023-02-06T22:19:02.024Z,104211.31
2023-02-06T22:21:31.696Z,104216.59
2023-02-06T22:24:01.589Z,104212.25
2023-02-06T22:26:31.241Z,104222.09
2023-02-06T22:28:59.610Z,104213.31
2023-02-06T22:31:31.320Z,104222.13
2023-02-06T22:34:03.740Z,104220.50
2023-02-06T22:36:33.837Z,104216.09
2023-02-06T22:39:05.068Z,104222.09
2023-02-06T22:41:33.568Z,104213.31
2023-02-06T22:44:01.603Z,104224.53
2023-02-06T22:46:31.329Z,104228.63
2023-02-06T22:49:01.171Z,104225.84
2023-02-06T22:51:29.855Z,104225.91
2023-02-06T22:53:57.745Z,104223.41
2023-02-06T22:56:37.313Z,104220.59
2023-02-06T22:59:07.870Z,104224.78
2023-02-06T23:01:38.285Z,104225.59
2023-02-06T23:04:13.908Z,104217.81
2023-02-06T23:06:43.387Z,104225.91
2023-02-06T23:09:14.955Z,104221.25
2023-02-06T23:11:45.791Z,104220.53
2023-02-06T23:14:15.270Z,104212.44
2023-02-06T23:16:43.959Z,104206.94
2023-02-06T23:19:15.167Z,104216.50
2023-02-06T23:21:45.245Z,104210.34
2023-02-06T23:24:13.947Z,104212.84
2023-02-06T23:26:42.926Z,104209.38
2023-02-06T23:29:15.707Z,104213.78
2023-02-06T23:31:45.894Z,104203.19
2023-02-06T23:34:15.786Z,104209.19
2023-02-06T23:36:44.106Z,104213.56
2023-02-06T23:39:12.454Z,104208.47
2023-02-06T23:41:40.417Z,104207.53
2023-02-06T23:44:09.775Z,104216.34
2023-02-06T23:46:39.296Z,104204.63
2023-02-06T23:49:07.641Z,104208.28
2023-02-06T23:51:37.951Z,104211.72
2023-02-06T23:54:06.953Z,104203.75
2023-02-06T23:56:35.825Z,104204.50
2023-02-06T23:59:04.538Z,104200.88
